Terminal Aerodrome Forecast
Issued by NWS

Home | Current Version | Previous Version | Text Only | Print | Product List | Glossary On
Versions: 1 2 3 4 5 6 7 8 9 10 11 12 13 14 15 16 17 18
001
FTUS44 KMAF 040520
TAFFST
TAF
KFST 040520Z 0406/0506 35006KT P6SM OVC009
      TEMPO 0406/0410 1SM -RADZ BR OVC001
     FM041000 35009KT 3SM -DZ BR OVC005
     FM041900 35009KT 3SM -RADZ BR OVC010=

USA.gov is the U.S. government's official web portal to all federal, state and local government web resources and services.